Aviation Digital Data Service (ADDS)

Output produced by TAFs form (0937 UTC 20 December 2014)
found at http://www.aviationweather.gov/adds/tafs/
 
KBJC 200935Z AUTO 23006KT 10SM CLR 00/M08 A3000 RMK AO2
KBJC 200522Z 2006/2106 24006KT P6SM SCT120 BKN200 
     FM201500 28005KT P6SM SCT120 BKN200